createdAt,value
2022-07-29T00:02:25.748Z,15.79
2022-07-29T00:04:52.351Z,15.76
2022-07-29T00:07:19.029Z,15.72
2022-07-29T00:09:51.097Z,15.71
2022-07-29T00:12:26.214Z,15.67
2022-07-29T00:14:57.586Z,15.63
2022-07-29T00:17:25.133Z,15.63
2022-07-29T00:19:52.447Z,15.59
2022-07-29T00:22:20.302Z,15.55
2022-07-29T00:24:50.752Z,15.54
2022-07-29T00:27:18.610Z,15.53
2022-07-29T00:29:45.936Z,15.53
2022-07-29T00:32:13.195Z,15.49
2022-07-29T00:34:59.038Z,15.47
2022-07-29T00:37:25.673Z,15.46
2022-07-29T00:39:52.213Z,15.46
2022-07-29T00:42:18.789Z,15.42
2022-07-29T00:44:45.633Z,15.39
2022-07-29T00:47:12.740Z,15.38
2022-07-29T00:49:41.317Z,15.36
2022-07-29T00:52:10.056Z,15.35
2022-07-29T00:54:44.267Z,15.34
2022-07-29T00:57:12.685Z,15.30
2022-07-29T00:59:39.251Z,15.29
2022-07-29T01:02:06.135Z,15.24
2022-07-29T01:04:33.039Z,15.23
2022-07-29T01:07:02.876Z,15.20
2022-07-29T01:09:43.199Z,15.18
2022-07-29T01:12:19.812Z,15.14
2022-07-29T01:14:48.055Z,15.12
2022-07-29T01:17:21.076Z,15.10
2022-07-29T01:19:59.530Z,15.11
2022-07-29T01:22:40.282Z,15.09
2022-07-29T01:25:25.060Z,15.07
2022-07-29T01:28:10.172Z,15.05
2022-07-29T01:30:40.752Z,15.00
2022-07-29T01:33:34.163Z,15.00
2022-07-29T01:36:06.114Z,14.97
2022-07-29T01:38:32.829Z,14.96
2022-07-29T01:41:13.556Z,14.95
2022-07-29T01:43:58.570Z,14.92
2022-07-29T01:46:34.445Z,14.91
2022-07-29T01:49:09.003Z,14.89
2022-07-29T01:51:50.424Z,14.88
2022-07-29T01:54:22.031Z,14.84
2022-07-29T01:56:52.040Z,14.84
2022-07-29T01:59:21.249Z,14.82
2022-07-29T02:01:50.647Z,14.81
2022-07-29T02:04:29.169Z,14.78
2022-07-29T02:07:08.268Z,14.80
2022-07-29T02:09:37.657Z,14.75
2022-07-29T02:12:05.738Z,14.75
2022-07-29T02:14:37.284Z,14.75
2022-07-29T02:17:04.049Z,14.74
2022-07-29T02:19:33.327Z,14.73
2022-07-29T02:22:01.611Z,14.72
2022-07-29T02:24:29.482Z,14.72
2022-07-29T02:26:57.564Z,14.70
2022-07-29T02:29:26.994Z,14.70
2022-07-29T02:31:54.703Z,14.68
2022-07-29T02:34:22.663Z,14.67
2022-07-29T02:36:51.065Z,14.65
2022-07-29T02:39:19.219Z,14.64
2022-07-29T02:42:02.085Z,14.63
2022-07-29T02:44:34.258Z,14.63
2022-07-29T02:47:31.304Z,14.62
2022-07-29T02:50:14.373Z,14.62
2022-07-29T02:52:45.344Z,14.58
2022-07-29T02:55:30.939Z,14.59
2022-07-29T02:58:09.386Z,14.59
2022-07-29T03:00:38.556Z,14.57
2022-07-29T03:03:10.697Z,14.57
2022-07-29T03:05:38.136Z,14.56
2022-07-29T03:08:07.963Z,14.55
2022-07-29T03:10:35.624Z,14.53
2022-07-29T03:13:02.741Z,14.53
2022-07-29T03:15:30.235Z,14.53
2022-07-29T03:17:57.493Z,14.51
2022-07-29T03:20:24.535Z,14.53
2022-07-29T03:22:51.267Z,14.51
2022-07-29T03:25:19.976Z,14.50
2022-07-29T03:27:47.562Z,14.48
2022-07-29T03:30:21.902Z,14.49
2022-07-29T03:32:52.022Z,14.47
2022-07-29T03:35:20.475Z,14.45
2022-07-29T03:37:47.457Z,14.44
2022-07-29T03:40:22.761Z,14.44
2022-07-29T03:42:52.529Z,14.42
2022-07-29T03:45:20.551Z,14.40
2022-07-29T03:47:54.709Z,14.40
2022-07-29T03:50:23.851Z,14.40
2022-07-29T03:52:50.602Z,14.40
2022-07-29T03:55:17.758Z,14.40
2022-07-29T03:57:47.136Z,14.41
2022-07-29T04:00:16.331Z,14.40
2022-07-29T04:02:47.850Z,14.41
2022-07-29T04:05:15.852Z,14.38
2022-07-29T04:07:51.227Z,14.38
2022-07-29T04:10:30.134Z,14.38
2022-07-29T04:12:58.981Z,14.39
2022-07-29T04:15:25.606Z,14.38
2022-07-29T04:17:52.199Z,14.38
2022-07-29T04:20:19.433Z,14.39
2022-07-29T04:22:45.886Z,14.37
2022-07-29T04:25:12.316Z,14.37
2022-07-29T04:27:58.736Z,14.35
2022-07-29T04:30:25.230Z,14.36
2022-07-29T04:32:51.836Z,14.35
2022-07-29T04:35:18.920Z,14.34
2022-07-29T04:37:45.400Z,14.37
2022-07-29T04:40:12.783Z,14.35
2022-07-29T04:42:46.536Z,14.37
2022-07-29T04:45:14.889Z,14.39
2022-07-29T04:47:42.705Z,14.39
2022-07-29T04:50:10.015Z,14.40
2022-07-29T04:52:36.686Z,14.41
2022-07-29T04:55:04.482Z,14.41
2022-07-29T04:57:31.185Z,14.39
2022-07-29T04:59:57.751Z,14.39
2022-07-29T05:02:24.423Z,14.38
2022-07-29T05:04:51.036Z,14.37
2022-07-29T05:07:17.793Z,14.38
2022-07-29T05:09:44.208Z,14.38
2022-07-29T05:12:10.794Z,14.40
2022-07-29T05:14:37.242Z,14.42
2022-07-29T05:17:03.799Z,14.44
2022-07-29T05:19:30.259Z,14.46
2022-07-29T05:21:56.760Z,14.47
2022-07-29T05:24:23.272Z,14.48
2022-07-29T05:26:49.783Z,14.52
2022-07-29T05:29:44.413Z,14.57
2022-07-29T05:32:03.308Z,14.60
2022-07-29T05:34:29.836Z,14.63
2022-07-29T05:36:56.470Z,14.70
2022-07-29T05:39:48.202Z,14.79
2022-07-29T05:42:11.097Z,14.87
2022-07-29T05:44:38.979Z,14.95
2022-07-29T05:47:05.783Z,15.09
2022-07-29T05:49:32.291Z,15.22
2022-07-29T05:51:59.207Z,15.27
2022-07-29T05:54:26.619Z,15.35
2022-07-29T05:56:53.155Z,15.38
2022-07-29T05:59:19.616Z,15.60
2022-07-29T06:01:46.148Z,16.50
2022-07-29T06:04:12.802Z,17.58
2022-07-29T06:06:39.556Z,18.22
2022-07-29T06:09:12.289Z,18.23
2022-07-29T06:11:39.197Z,17.91
2022-07-29T06:14:05.759Z,17.91
2022-07-29T06:16:32.284Z,17.85
2022-07-29T06:18:58.791Z,17.78
2022-07-29T06:21:25.328Z,17.62
2022-07-29T06:23:51.793Z,17.26
2022-07-29T06:26:18.217Z,17.17
2022-07-29T06:28:44.681Z,17.03
2022-07-29T06:31:11.257Z,16.96
2022-07-29T06:33:37.793Z,16.80
2022-07-29T06:36:06.446Z,16.73
2022-07-29T06:38:42.031Z,16.68
2022-07-29T06:41:13.428Z,16.83
2022-07-29T06:43:50.240Z,17.06
2022-07-29T06:46:20.599Z,17.29
2022-07-29T06:48:48.377Z,17.62
2022-07-29T06:51:15.424Z,17.89
2022-07-29T06:54:00.514Z,17.90
2022-07-29T06:56:38.529Z,18.02
2022-07-29T06:59:07.377Z,18.23
2022-07-29T07:01:34.009Z,18.23
2022-07-29T07:04:00.617Z,18.27
2022-07-29T07:06:27.134Z,18.35
2022-07-29T07:08:53.669Z,18.65
2022-07-29T07:11:20.428Z,19.07
2022-07-29T07:13:47.048Z,19.43
2022-07-29T07:16:13.625Z,19.63
2022-07-29T07:18:40.137Z,19.72
2022-07-29T07:21:06.706Z,20.02
2022-07-29T07:23:33.206Z,20.18
2022-07-29T07:26:00.081Z,20.24
2022-07-29T07:28:26.638Z,20.37
2022-07-29T07:30:53.178Z,20.51
2022-07-29T07:33:20.355Z,20.63
2022-07-29T07:35:47.357Z,20.93
2022-07-29T07:38:14.224Z,21.02
2022-07-29T07:40:41.257Z,21.28
2022-07-29T07:43:07.727Z,21.41
2022-07-29T07:45:34.585Z,21.44
2022-07-29T07:48:01.101Z,21.22
2022-07-29T07:50:28.077Z,21.27
2022-07-29T07:52:58.731Z,21.44
2022-07-29T07:55:26.445Z,21.37
2022-07-29T07:57:53.007Z,21.40
2022-07-29T08:00:19.855Z,21.37
2022-07-29T08:02:49.612Z,21.27
2022-07-29T08:05:19.495Z,21.26
2022-07-29T08:07:47.471Z,21.26
2022-07-29T08:10:16.070Z,21.24
2022-07-29T08:12:44.298Z,21.20
2022-07-29T08:15:10.818Z,21.20
2022-07-29T08:17:37.348Z,21.22
2022-07-29T08:20:04.283Z,21.13
2022-07-29T08:22:30.794Z,21.25
2022-07-29T08:24:57.371Z,21.34
2022-07-29T08:27:42.997Z,21.47
2022-07-29T08:30:11.094Z,21.86
2022-07-29T08:32:53.012Z,22.18
2022-07-29T08:35:21.020Z,22.21
2022-07-29T08:37:48.528Z,22.12
2022-07-29T08:40:15.404Z,22.18
2022-07-29T08:42:42.603Z,21.98
2022-07-29T08:45:09.600Z,21.93
2022-07-29T08:47:40.544Z,22.10
2022-07-29T08:50:08.840Z,22.32
2022-07-29T08:52:38.363Z,22.76
2022-07-29T08:55:06.722Z,22.89
2022-07-29T08:57:34.777Z,22.94
2022-07-29T09:00:11.580Z,23.24
2022-07-29T09:02:46.793Z,23.50
2022-07-29T09:05:15.078Z,23.56
2022-07-29T09:07:44.075Z,23.76
2022-07-29T09:10:11.108Z,24.10
2022-07-29T09:12:38.331Z,24.28
2022-07-29T09:15:05.814Z,24.45
2022-07-29T09:17:50.398Z,24.65
2022-07-29T09:20:20.163Z,24.78
2022-07-29T09:22:54.343Z,24.49
2022-07-29T09:25:34.562Z,24.46
2022-07-29T09:28:15.381Z,24.60
2022-07-29T09:30:55.719Z,24.88
2022-07-29T09:33:23.467Z,25.06
2022-07-29T09:36:07.313Z,25.15
2022-07-29T09:38:35.091Z,25.35
2022-07-29T09:41:06.238Z,25.65
2022-07-29T09:43:33.951Z,25.83
2022-07-29T09:46:18.740Z,26.05
2022-07-29T09:48:45.274Z,26.10
2022-07-29T09:51:26.947Z,26.17
2022-07-29T09:54:27.243Z,25.81
2022-07-29T09:56:54.689Z,25.64
2022-07-29T09:59:23.253Z,25.39
2022-07-29T10:01:51.008Z,25.77
2022-07-29T10:04:18.519Z,25.83
2022-07-29T10:07:05.087Z,25.66
2022-07-29T10:09:33.295Z,25.24
2022-07-29T10:12:15.353Z,25.34
2022-07-29T10:14:42.771Z,25.52
2022-07-29T10:17:11.233Z,25.48
2022-07-29T10:19:39.156Z,25.34
2022-07-29T10:22:09.138Z,25.23
2022-07-29T10:24:36.423Z,25.07
2022-07-29T10:27:05.090Z,25.21
2022-07-29T10:29:35.102Z,25.73
2022-07-29T10:32:35.860Z,26.27
2022-07-29T10:35:35.756Z,26.70
2022-07-29T10:38:35.933Z,26.88
2022-07-29T10:41:36.415Z,26.75
2022-07-29T10:44:23.022Z,26.56
2022-07-29T10:46:51.563Z,26.53
2022-07-29T10:49:25.571Z,26.62
2022-07-29T10:51:54.269Z,26.80
2022-07-29T10:54:36.187Z,27.04
2022-07-29T10:57:21.238Z,27.14
2022-07-29T11:00:11.927Z,26.94
2022-07-29T11:02:45.347Z,26.86
2022-07-29T11:05:14.924Z,26.75
2022-07-29T11:08:20.402Z,26.88
2022-07-29T11:10:49.012Z,26.71
2022-07-29T11:13:47.280Z,26.62
2022-07-29T11:16:16.703Z,26.63
2022-07-29T11:19:11.290Z,26.64
2022-07-29T11:21:53.521Z,26.66
2022-07-29T11:24:30.163Z,26.98
2022-07-29T11:27:18.009Z,27.09
2022-07-29T11:29:55.548Z,26.60
2022-07-29T11:32:24.812Z,26.40
2022-07-29T11:35:17.484Z,26.65
2022-07-29T11:37:52.780Z,26.71
2022-07-29T11:40:22.843Z,26.73
2022-07-29T11:42:51.914Z,27.06
2022-07-29T11:48:29.340Z,27.13
2022-07-29T11:50:59.020Z,27.39
2022-07-29T11:53:25.799Z,27.46
2022-07-29T11:55:58.253Z,27.47
2022-07-29T11:58:25.909Z,27.42
2022-07-29T12:00:53.319Z,27.39
2022-07-29T12:03:34.960Z,27.55
2022-07-29T12:06:18.179Z,27.44
2022-07-29T12:07:02.021Z,27.02
2022-07-29T12:08:45.860Z,27.58
2022-07-29T12:11:21.615Z,27.62
2022-07-29T12:13:49.995Z,27.51
2022-07-29T12:16:27.970Z,27.37
2022-07-29T12:19:05.787Z,27.24
2022-07-29T12:22:07.499Z,27.19
2022-07-29T12:25:30.309Z,27.10
2022-07-29T12:28:14.076Z,27.15
2022-07-29T12:31:00.390Z,27.25
2022-07-29T12:33:29.804Z,27.15
2022-07-29T12:36:17.157Z,27.13
2022-07-29T12:38:47.674Z,27.14
2022-07-29T12:41:14.191Z,27.13
2022-07-29T12:43:53.080Z,27.17
2022-07-29T12:46:19.592Z,27.07
2022-07-29T12:48:46.225Z,26.99
2022-07-29T12:51:15.133Z,26.98
2022-07-29T12:53:41.685Z,26.93
2022-07-29T12:59:30.588Z,27.04
2022-07-29T13:01:57.490Z,26.99
2022-07-29T13:04:28.884Z,27.02
2022-07-29T13:07:10.376Z,27.05
2022-07-29T13:09:46.400Z,26.82
2022-07-29T13:12:14.612Z,26.97
2022-07-29T13:14:47.904Z,26.83
2022-07-29T13:17:14.329Z,26.69
2022-07-29T13:19:44.560Z,26.71
2022-07-29T13:22:13.227Z,26.74
2022-07-29T13:24:55.913Z,26.71
2022-07-29T13:27:26.025Z,26.72
2022-07-29T13:29:53.396Z,26.67
2022-07-29T13:32:28.527Z,26.61
2022-07-29T13:34:57.924Z,26.47
2022-07-29T13:37:24.796Z,26.40
2022-07-29T13:39:53.187Z,26.29
2022-07-29T13:42:19.904Z,26.30
2022-07-29T13:44:46.515Z,26.41
2022-07-29T13:47:17.065Z,26.27
2022-07-29T13:49:43.566Z,26.21
2022-07-29T13:52:10.013Z,26.23
2022-07-29T13:54:41.933Z,26.42
2022-07-29T13:57:11.685Z,26.40
2022-07-29T13:59:39.171Z,26.31
2022-07-29T14:02:06.451Z,26.27
2022-07-29T14:04:34.323Z,26.13
2022-07-29T14:07:03.662Z,25.95
2022-07-29T14:09:30.920Z,25.87
2022-07-29T14:12:08.097Z,25.83
2022-07-29T14:14:36.439Z,25.79
2022-07-29T14:17:04.177Z,25.74
2022-07-29T14:19:32.828Z,25.91
2022-07-29T14:21:59.695Z,25.84
2022-07-29T14:24:26.396Z,25.90
2022-07-29T14:26:52.908Z,25.91
2022-07-29T14:29:20.686Z,25.81
2022-07-29T14:31:47.203Z,25.85
2022-07-29T14:34:13.747Z,25.88
2022-07-29T14:36:40.194Z,25.86
2022-07-29T14:39:06.665Z,25.78
2022-07-29T14:41:33.715Z,25.60
2022-07-29T14:44:02.838Z,25.52
2022-07-29T14:46:29.378Z,25.60
2022-07-29T14:48:56.071Z,25.61
2022-07-29T14:51:22.564Z,25.58
2022-07-29T14:53:49.298Z,25.55
2022-07-29T14:56:36.151Z,25.63
2022-07-29T14:59:02.659Z,25.53
2022-07-29T15:01:29.986Z,25.57
2022-07-29T15:03:59.659Z,25.56
2022-07-29T15:06:27.295Z,25.51
2022-07-29T15:08:54.751Z,25.53
2022-07-29T15:11:21.445Z,25.44
2022-07-29T15:13:47.905Z,25.33
2022-07-29T15:16:14.414Z,25.34
2022-07-29T15:18:41.154Z,25.28
2022-07-29T15:21:08.330Z,25.22
2022-07-29T15:23:38.496Z,25.15
2022-07-29T15:26:07.973Z,25.13
2022-07-29T15:28:36.667Z,25.14
2022-07-29T15:31:03.204Z,25.12
2022-07-29T15:33:29.660Z,25.07
2022-07-29T15:35:57.529Z,25.07
2022-07-29T15:38:28.895Z,24.96
2022-07-29T15:40:55.807Z,25.01
2022-07-29T15:43:22.681Z,25.02
2022-07-29T15:46:08.257Z,25.01
2022-07-29T15:48:38.858Z,24.97
2022-07-29T15:51:05.425Z,24.94
2022-07-29T15:53:31.947Z,24.93
2022-07-29T15:56:02.043Z,24.93
2022-07-29T15:58:30.183Z,24.92
2022-07-29T16:01:00.623Z,24.94
2022-07-29T16:03:27.102Z,24.87
2022-07-29T16:05:53.576Z,24.81
2022-07-29T16:08:27.735Z,24.81
2022-07-29T16:10:56.376Z,24.83
2022-07-29T16:13:22.896Z,24.84
2022-07-29T16:16:06.610Z,24.74
2022-07-29T16:18:33.125Z,24.69
2022-07-29T16:20:59.660Z,24.66
2022-07-29T16:23:26.357Z,24.61
2022-07-29T16:26:01.208Z,24.56
2022-07-29T16:28:29.062Z,24.52
2022-07-29T16:30:55.740Z,24.44
2022-07-29T16:33:22.281Z,24.40
2022-07-29T16:35:48.929Z,24.37
2022-07-29T16:38:15.784Z,24.36
2022-07-29T16:40:42.583Z,24.35
2022-07-29T16:43:09.185Z,24.31
2022-07-29T16:45:42.592Z,24.29
2022-07-29T16:48:13.925Z,24.23
2022-07-29T16:50:40.863Z,24.12
2022-07-29T16:53:10.226Z,24.09
2022-07-29T16:55:36.749Z,24.10
2022-07-29T16:58:03.227Z,24.04
2022-07-29T17:00:29.851Z,24.04
2022-07-29T17:02:56.364Z,24.00
2022-07-29T17:05:25.718Z,24.01
2022-07-29T17:07:54.194Z,24.00
2022-07-29T17:10:23.469Z,23.90
2022-07-29T17:12:50.204Z,23.91
2022-07-29T17:15:20.170Z,23.94
2022-07-29T17:17:56.386Z,23.88
2022-07-29T17:20:23.614Z,23.84
2022-07-29T17:22:50.429Z,23.82
2022-07-29T17:25:20.276Z,23.77
2022-07-29T17:27:47.397Z,23.72
2022-07-29T17:30:13.946Z,23.69
2022-07-29T17:32:40.379Z,23.64
2022-07-29T17:35:26.279Z,23.62
2022-07-29T17:37:53.033Z,23.56
2022-07-29T17:40:19.840Z,23.51
2022-07-29T17:42:48.701Z,23.46
2022-07-29T17:45:15.327Z,23.46
2022-07-29T17:47:41.866Z,23.39
2022-07-29T17:50:08.784Z,23.32
2022-07-29T17:52:35.293Z,23.29
2022-07-29T17:55:02.590Z,23.29
2022-07-29T17:57:29.227Z,23.21
2022-07-29T17:59:55.759Z,23.16
2022-07-29T18:02:22.278Z,23.11
2022-07-29T18:04:57.128Z,23.02
2022-07-29T18:07:24.228Z,22.93
2022-07-29T18:09:50.772Z,22.86
2022-07-29T18:12:17.232Z,22.80
2022-07-29T18:14:43.720Z,22.73
2022-07-29T18:17:10.420Z,22.71
2022-07-29T18:19:36.978Z,22.66
2022-07-29T18:22:04.753Z,22.60
2022-07-29T18:24:32.588Z,22.52
2022-07-29T18:26:59.338Z,22.45
2022-07-29T18:29:28.774Z,22.40
2022-07-29T18:31:55.452Z,22.33
2022-07-29T18:34:21.963Z,22.24
2022-07-29T18:36:48.417Z,22.21
2022-07-29T18:39:20.788Z,22.15
2022-07-29T18:41:50.439Z,22.11
2022-07-29T18:44:19.344Z,22.06
2022-07-29T18:46:48.789Z,22.00
2022-07-29T18:49:15.366Z,21.87
2022-07-29T18:51:41.976Z,21.82
2022-07-29T18:54:10.012Z,21.75
2022-07-29T18:56:37.225Z,21.66
2022-07-29T18:59:06.550Z,21.60
2022-07-29T19:01:33.207Z,21.54
2022-07-29T19:04:00.517Z,21.48
2022-07-29T19:06:27.068Z,21.39
2022-07-29T19:08:54.663Z,21.35
2022-07-29T19:11:21.244Z,21.26
2022-07-29T19:13:47.778Z,21.20
2022-07-29T19:16:14.609Z,21.15
2022-07-29T19:18:41.638Z,21.07
2022-07-29T19:21:08.309Z,21.01
2022-07-29T19:24:01.458Z,20.97
2022-07-29T19:26:24.239Z,20.93
2022-07-29T19:28:53.092Z,20.86
2022-07-29T19:31:22.045Z,20.78
2022-07-29T19:33:51.607Z,20.72
2022-07-29T19:36:18.073Z,20.67
2022-07-29T19:38:44.563Z,20.62
2022-07-29T19:41:13.952Z,20.55
2022-07-29T19:43:51.958Z,20.45
2022-07-29T19:46:21.084Z,20.42
2022-07-29T19:48:50.858Z,20.37
2022-07-29T19:51:17.436Z,20.29
2022-07-29T19:53:44.677Z,20.26
2022-07-29T19:56:11.347Z,20.21
2022-07-29T19:58:39.158Z,20.14
2022-07-29T20:01:10.233Z,20.09
2022-07-29T20:03:44.793Z,20.04
2022-07-29T20:06:11.273Z,19.99
2022-07-29T20:08:40.833Z,19.96
2022-07-29T20:11:07.342Z,19.88
2022-07-29T20:13:35.249Z,19.82
2022-07-29T20:16:02.650Z,19.76
2022-07-29T20:18:29.858Z,19.73
2022-07-29T20:20:57.437Z,19.70
2022-07-29T20:23:26.953Z,19.64
2022-07-29T20:25:54.026Z,19.59
2022-07-29T20:28:23.924Z,19.56
2022-07-29T20:30:50.687Z,19.51
2022-07-29T20:33:17.475Z,19.48
2022-07-29T20:35:47.288Z,19.43
2022-07-29T20:38:18.053Z,19.38
2022-07-29T20:40:45.347Z,19.33
2022-07-29T20:43:11.862Z,19.29
2022-07-29T20:45:40.596Z,19.24
2022-07-29T20:48:08.370Z,19.24
2022-07-29T20:50:40.881Z,19.15
2022-07-29T20:53:07.357Z,19.12
2022-07-29T20:55:33.994Z,19.07
2022-07-29T20:58:00.509Z,19.03
2022-07-29T21:00:27.288Z,18.99
2022-07-29T21:02:54.452Z,18.94
2022-07-29T21:05:21.566Z,18.90
2022-07-29T21:07:48.181Z,18.87
2022-07-29T21:10:18.510Z,18.84
2022-07-29T21:12:48.374Z,18.79
2022-07-29T21:15:20.629Z,18.75
2022-07-29T21:17:48.137Z,18.71
2022-07-29T21:20:17.309Z,18.66
2022-07-29T21:22:45.004Z,18.62
2022-07-29T21:25:12.009Z,18.53
2022-07-29T21:27:57.244Z,18.51
2022-07-29T21:30:23.943Z,18.48
2022-07-29T21:32:50.737Z,18.43
2022-07-29T21:36:01.797Z,18.36
2022-07-29T21:38:05.960Z,18.34
2022-07-29T21:40:32.481Z,18.26
2022-07-29T21:42:59.026Z,18.23
2022-07-29T21:45:26.022Z,18.18
2022-07-29T21:47:52.705Z,18.14
2022-07-29T21:50:19.344Z,18.12
2022-07-29T21:52:45.836Z,18.06
2022-07-29T21:55:13.605Z,18.05
2022-07-29T21:57:40.688Z,18.00
2022-07-29T22:00:10.521Z,17.98
2022-07-29T22:02:39.905Z,17.96
2022-07-29T22:05:06.629Z,17.92
2022-07-29T22:07:54.183Z,17.90
2022-07-29T22:10:19.756Z,17.85
2022-07-29T22:12:46.401Z,17.81
2022-07-29T22:15:13.250Z,17.79
2022-07-29T22:17:40.813Z,17.75
2022-07-29T22:20:07.789Z,17.74
2022-07-29T22:22:34.338Z,17.71
2022-07-29T22:25:00.927Z,17.65
2022-07-29T22:27:27.640Z,17.64
2022-07-29T22:29:57.473Z,17.62
2022-07-29T22:32:24.112Z,17.59
2022-07-29T22:34:50.703Z,17.55
2022-07-29T22:37:17.578Z,17.48
2022-07-29T22:39:44.360Z,17.43
2022-07-29T22:42:10.845Z,17.41
2022-07-29T22:44:37.360Z,17.37
2022-07-29T22:47:04.779Z,17.31
2022-07-29T22:49:31.391Z,17.27
2022-07-29T22:51:57.851Z,17.25
2022-07-29T22:54:24.348Z,17.21
2022-07-29T22:56:50.935Z,17.19
2022-07-29T22:59:17.506Z,17.14
2022-07-29T23:01:44.151Z,17.15
2022-07-29T23:04:10.713Z,17.12
2022-07-29T23:06:37.235Z,17.09
2022-07-29T23:09:04.418Z,17.08
2022-07-29T23:11:30.924Z,17.04
2022-07-29T23:13:57.471Z,17.02
2022-07-29T23:16:26.739Z,16.97
2022-07-29T23:18:54.402Z,16.96
2022-07-29T23:21:20.940Z,16.91
2022-07-29T23:23:48.515Z,16.90
2022-07-29T23:26:17.083Z,16.85
2022-07-29T23:28:44.739Z,16.80
2022-07-29T23:31:11.444Z,16.74
2022-07-29T23:33:37.975Z,16.69
2022-07-29T23:36:04.608Z,16.63
2022-07-29T23:38:31.166Z,16.60
2022-07-29T23:40:58.703Z,16.58
2022-07-29T23:43:25.221Z,16.50
2022-07-29T23:45:51.722Z,16.47
2022-07-29T23:48:20.928Z,16.42
2022-07-29T23:50:47.440Z,16.37
2022-07-29T23:53:13.957Z,16.32
2022-07-29T23:55:40.493Z,16.27
2022-07-29T23:58:07.038Z,16.26
